Ana Sayfa
METAR-TAF:

METAR-TAF

Havaalanları :

Blue Ridge Airport

Martinsville, Virginia, Amerika Birleşik Devletleri

Enlem: 36-38N, Boylam: 080-01W, yükseklik: 287 m

Güncel hava durumu gözlemi

Rapor saat 03:55 UTC de 25 dakika önce yapıldı.
Sakin rüzgar
Sıcaklık 7°C
Nem 100%
Basınç 1016 hPa
Görüş mesafesi: 4.0 km
400 ft yükseklikte çok bulutlu
Pus

METAR: KMTV 100355Z AUTO 00000KT 2 1/2SM BR OVC004 07/07 A2999 RMK AO2 T00700070

Saat: 23:20 (04:20 UTC)


TAF: eksik

4.000'den fazla havaalanı için hava durumu gözlemleri ve tahminleri (METAR ve TAF raporları).

Kullanılabilir istasyonlar harita üzerinde sarı ve kırmızı noktalarla gösterilir.

İstasyonun adını görmek için fareyi noktanın üzerinde gezdirin.

Sonrasında hava gözlem ve tahminlerini görmek için tıklayın.

Haritayı değiştirmek için: yaklaştırmak için siyah artı işaretli yeşil düğmeye ve uzaklaştırmak için de eksi işaretli düğmeye hızla tıklayın; bitişik haritalar için yeşil okları kullanın.


METAR-TAF: